Pelion, SC

2:53 AM EDT on August 31, 2014 (GMT -0400)
Pendleton Field | Change Station
CLOSE
Current Station
Personal Weather Station
Location: Swansea, SC
Elevation: 354 ft
Nearby Weather Stations

Elev 354 ft 33.69 °N, 81.23 °W | Updated 7 seconds ago

Clear
Clear
75.6 °F
Feels Like 74 °F
N
2.2
Wind Variable Wind from SE
Gusts 2.2 mph

Today
High -- | Low -- °F
--% Chance of Precip.
Yesterday
High -- | Low -- °F
Precip. -- in
6:58 AM 7:51 PM
Waxing Crescent, 28% visible
Pressure 30.13 in
Visibility 10.0 miles
Clouds Few 9500 ft
Heat Index 74 °F
Dew Point 75 °F
Humidity 99%
Rainfall 0.00 in
Snow Depth Not available.
UV 0 out of 12
Pollen 9.00 out of 12
Air Quality Not available.
Flu Activity Not available.
METAR KCAE 310556Z 12006KT 10SM FEW095 26/22 A3014 RMK AO2 SLP201 T02560217 10306 20256 58002

More Conditions Fewer Conditions

Pressure 30.13 in
Visibility 10.0 miles
Clouds Few 9500 ft
Heat Index 74 °F
Dew Point 75 °F
Humidity 99%
Rainfall 0.00 in
Snow Depth Not available.
UV 0 out of 12
Pollen 9.00 out of 12
Air Quality Not available.
Flu Activity Not available.
METAR KCAE 310556Z 12006KT 10SM FEW095 26/22 A3014 RMK AO2 SLP201 T02560217 10306 20256 58002

More Conditions Fewer Conditions

10-Day Weather Forecast

Almanac

Astronomy

Aug. 31, 2014 Rise Set
Actual Time 6:58 AM EDT 7:51 PM EDT
Civil Twilight 6:32 AM EDT 8:17 PM EDT
Nautical Twilight 6:02 AM EDT 8:47 PM EDT
Astronomical Twilight 5:31 AM EDT 9:18 PM EDT
Moon 12:26 PM EDT 11:23 PM EDT
Length of Visible Light 13h 44m
Length of Day
12h 53m
Tomorrow will be 2m 0s shorter.
Waxing Crescent, 28% of the Moon is Illuminated
Today
Waxing Crescent
Sep 2
First Quarter
Sep 8
Full
Sep 15
Last Quarter
Sep 24
New

Today's Extremes

State Highs State Lows

Community

WunderPhotos

Upload Photos

1,748,800 photos uploaded!

Nearby

Air Quality

  Air Quality AQ Index Pollutant
Yesterday Good
OZONE
Sunday Good
OZONE

Snow Depth

Station Depth Elevation
No new snow has been reported.

Earthquake Activity

City Distance Mag. Time & Date
No recent earthquake activity has been reported nearby.
Minimum magnitude displayed is 2.5.

Coastal Water Temperatures

Place Temperature
No Stations Reporting

Nearby Weather Stations